LFCK/DCM METAR and TAF weather

Enter ICAO airport designator
Station Type Date Time Source
LFCK METAR 2020/01/24 03:00 UTC NOAA

LFCK 240300Z AUTO 14013KT CAVOK 10/07 Q1021


Station Type Date Time Source
LFCK Decoded METAR 2020/01/24 03:00 UTC NOAA

Station name not available
Jan 23, 2020 - 10:00 PM EST / 2020.01.24 0300 UTC
Wind: from the SE (140 degrees) at 15 MPH (13 KT):0
Visibility: greater than 7 mile(s):0
Temperature: 50 F (10 C)
Dew Point: 44 F (7 C)
Relative Humidity: 81%
Pressure (altimeter): 30.15 in. Hg (1021 hPa)
ob: LFCK 240300Z AUTO 14013KT CAVOK 10/07 Q1021
cycle: 3

Station Type Date Time Source
LFCK TAF UTC NOAA

Error!

Example: see airport list